Time;durP1;ratioP1;P1;durP2;ratioP2;P2;SDS_P1;SDS_P2;PMS_P1;PMS_P2;Temp;Humidity;BMP_temperature;BMP_pressure;BME280_temperature;BME280_humidity;BME280_pressure;Samples;Min_cycle;Max_cycle;Signal;HPM_P1;HPM_P2
2023/05/29 00:00:49;;;;;;;;;;;;;;;18.44;43.44;99512.31;4425137;32;34487;-81
2023/05/29 00:03:18;;;;;;;;;;;;;;;18.34;43.93;99516.31;4425668;32;33549;-80
2023/05/29 00:05:47;;;;;;;;;;;;;;;18.50;43.70;99511.97;4431771;32;33857;-78
2023/05/29 00:08:15;;;;;;;;;;;;;;;18.43;43.72;99507.09;4428821;32;34231;-78
2023/05/29 00:10:45;;;;;;;;;;;;;;;18.47;43.95;99506.03;4427935;32;33377;-79
2023/05/29 00:13:13;;;;;;;;;;;;;;;18.50;43.71;99511.13;4429094;32;33995;-78
2023/05/29 00:15:42;;;;;;;;;;;;;;;18.34;44.30;99514.53;4433644;32;34056;-81
2023/05/29 00:18:11;;;;;;;;;;;;;;;18.58;44.05;99510.75;4428995;32;33149;-78
2023/05/29 00:20:39;;;;;;;;;;;;;;;18.52;44.20;99511.91;4428958;32;34257;-79
2023/05/29 00:23:09;;;;;;;;;;;;;;;18.55;43.97;99509.12;4427683;32;32248;-78
2023/05/29 00:25:40;;;;;;;;;;;;;;;18.45;44.54;99511.38;4434755;32;34307;-80
2023/05/29 00:28:11;;;;;;;;;;;;;;;18.39;44.62;99511.69;4433728;32;33561;-78
2023/05/29 00:30:40;;;;;;;;;;;;;;;18.18;44.54;99515.31;4428904;32;33512;-78
2023/05/29 00:33:09;;;;;;;;;;;;;;;18.20;44.74;99516.09;4428463;32;34938;-79
2023/05/29 00:35:37;;;;;;;;;;;;;;;18.29;44.23;99516.53;4428844;32;35032;-79
2023/05/29 00:38:06;;;;;;;;;;;;;;;18.12;44.60;99509.44;4434348;32;33734;-79
2023/05/29 00:40:34;;;;;;;;;;;;;;;18.29;44.32;99513.91;4428810;32;34120;-79
2023/05/29 00:43:03;;;;;;;;;;;;;;;16.06;50.23;99537.38;4428453;32;34793;-79
2023/05/29 00:45:36;;;;;;;;;;;;;;;17.30;47.47;99537.63;4428540;32;33634;-80
2023/05/29 00:48:04;;;;;;;;;;;;;;;17.04;48.10;99534.31;4433938;32;32710;-79
2023/05/29 00:50:33;;;;;;;;;;;;;;;16.94;48.31;99540.88;4427834;32;34752;-79
2023/05/29 00:53:03;;;;;;;;;;;;;;;17.60;46.77;99534.56;4426912;32;33382;-80
2023/05/29 00:55:32;;;;;;;;;;;;;;;17.58;47.29;99524.12;4427826;32;35284;-81
2023/05/29 00:58:00;;;;;;;;;;;;;;;17.53;47.96;99527.87;4428251;32;33705;-78
2023/05/29 01:00:30;;;;;;;;;;;;;;;17.87;46.91;99522.84;4433047;32;34522;-80
2023/05/29 01:03:02;;;;;;;;;;;;;;;17.76;47.36;99524.22;4429525;32;33932;-80
2023/05/29 01:05:32;;;;;;;;;;;;;;;18.01;46.35;99514.34;4429745;32;34353;-79
2023/05/29 01:08:01;;;;;;;;;;;;;;;18.00;46.34;99507.38;4428916;32;33436;-79
2023/05/29 01:10:31;;;;;;;;;;;;;;;18.11;46.24;99506.88;4434645;32;33911;-79
2023/05/29 01:13:01;;;;;;;;;;;;;;;18.03;46.24;99509.03;4429236;32;34973;-79
2023/05/29 01:15:31;;;;;;;;;;;;;;;17.88;46.52;99506.19;4429053;32;33246;-80
2023/05/29 01:18:05;;;;;;;;;;;;;;;17.81;46.54;99517.03;4429216;32;33954;-81
2023/05/29 01:20:35;;;;;;;;;;;;;;;17.88;46.18;99508.81;4428965;32;33809;-79
2023/05/29 01:23:09;;;;;;;;;;;;;;;17.81;46.12;99517.88;4433172;32;34717;-81
2023/05/29 01:25:45;;;;;;;;;;;;;;;17.80;46.56;99525.78;4429135;32;33869;-81
2023/05/29 01:28:15;;;;;;;;;;;;;;;17.77;46.66;99520.69;4428473;32;33864;-79
2023/05/29 01:30:44;;;;;;;;;;;;;;;17.68;47.18;99514.06;4429252;32;33267;-80
2023/05/29 01:33:12;;;;;;;;;;;;;;;17.79;47.09;99510.97;4432991;32;34797;-79
2023/05/29 01:35:41;;;;;;;;;;;;;;;17.81;47.03;99511.78;4434188;32;34172;-79
2023/05/29 01:38:10;;;;;;;;;;;;;;;17.65;47.31;99508.97;4426355;32;33109;-81
2023/05/29 01:40:38;;;;;;;;;;;;;;;17.47;47.87;99511.50;4424685;32;33676;-81
2023/05/29 01:43:07;;;;;;;;;;;;;;;17.46;48.09;99509.78;4428933;32;35117;-79
2023/05/29 01:45:37;;;;;;;;;;;;;;;17.58;48.12;99504.91;4434084;32;33582;-79
2023/05/29 01:48:07;;;;;;;;;;;;;;;17.56;48.16;99498.87;4429268;32;33319;-78
2023/05/29 01:50:36;;;;;;;;;;;;;;;17.22;48.83;99495.97;4428953;32;33823;-80
2023/05/29 01:53:04;;;;;;;;;;;;;;;17.52;48.38;99489.44;4428973;32;34364;-79
2023/05/29 01:55:32;;;;;;;;;;;;;;;17.58;47.96;99492.66;4434399;32;34618;-78
2023/05/29 01:58:01;;;;;;;;;;;;;;;17.48;47.81;99493.97;4429409;32;34739;-78
2023/05/29 02:00:30;;;;;;;;;;;;;;;17.42;48.00;99489.00;4429079;32;34981;-80
2023/05/29 02:03:00;;;;;;;;;;;;;;;17.42;48.18;99487.25;4431823;32;34133;-80
2023/05/29 02:05:29;;;;;;;;;;;;;;;17.43;48.43;99486.31;4429284;32;35158;-80
2023/05/29 02:07:57;;;;;;;;;;;;;;;17.44;48.24;99489.78;4434337;32;33108;-78
2023/05/29 02:10:26;;;;;;;;;;;;;;;17.27;48.71;99480.88;4427780;32;33699;-79
2023/05/29 02:12:55;;;;;;;;;;;;;;;17.20;48.76;99479.50;4429007;32;35234;-79
2023/05/29 02:15:23;;;;;;;;;;;;;;;17.42;48.47;99484.63;4429217;32;34201;-79
2023/05/29 02:17:52;;;;;;;;;;;;;;;17.41;48.59;99480.28;4433953;32;34877;-78
2023/05/29 02:20:22;;;;;;;;;;;;;;;17.49;48.56;99480.81;4429083;32;34295;-81
2023/05/29 02:22:50;;;;;;;;;;;;;;;17.47;48.19;99484.44;4428961;32;33900;-79
2023/05/29 02:25:19;;;;;;;;;;;;;;;17.58;48.18;99476.91;4427282;32;34496;-79
2023/05/29 02:27:48;;;;;;;;;;;;;;;17.49;48.38;99474.69;4433884;32;34224;-78
2023/05/29 02:30:16;;;;;;;;;;;;;;;17.50;48.02;99476.41;4428673;32;34959;-79
2023/05/29 02:32:45;;;;;;;;;;;;;;;17.43;48.32;99478.44;4429994;32;34700;-80
2023/05/29 02:35:14;;;;;;;;;;;;;;;17.59;48.03;99478.62;4428936;32;34702;-78
2023/05/29 02:37:44;;;;;;;;;;;;;;;17.42;48.66;99475.87;4428776;32;33086;-79
2023/05/29 02:40:16;;;;;;;;;;;;;;;17.57;48.60;99480.47;4434243;32;33509;-79
2023/05/29 02:42:45;;;;;;;;;;;;;;;17.65;48.26;99482.72;4429159;32;33504;-77
2023/05/29 02:45:13;;;;;;;;;;;;;;;17.74;48.12;99469.19;4427505;32;34025;-79
2023/05/29 02:47:42;;;;;;;;;;;;;;;17.63;48.41;99472.28;4428445;32;33788;-79
2023/05/29 02:50:11;;;;;;;;;;;;;;;17.62;48.35;99456.66;4433608;32;34768;-78
2023/05/29 02:52:39;;;;;;;;;;;;;;;17.59;48.22;99462.88;4427699;32;34451;-81
2023/05/29 02:55:09;;;;;;;;;;;;;;;17.68;48.18;99462.44;4428777;32;34398;-82
2023/05/29 02:57:38;;;;;;;;;;;;;;;17.72;48.23;99464.94;4427399;32;33020;-82
2023/05/29 03:00:10;;;;;;;;;;;;;;;17.58;48.95;99469.03;4428315;32;34183;-81
2023/05/29 03:02:39;;;;;;;;;;;;;;;17.29;49.44;99470.34;4433649;32;34322;-81
2023/05/29 03:05:09;;;;;;;;;;;;;;;17.46;49.00;99472.22;4428648;32;34447;-80
2023/05/29 03:07:37;;;;;;;;;;;;;;;17.39;49.39;99474.25;4428677;32;33657;-81
2023/05/29 03:10:07;;;;;;;;;;;;;;;17.43;49.39;99470.59;4428881;32;33156;-80
2023/05/29 03:12:37;;;;;;;;;;;;;;;17.48;49.48;99475.63;4433915;32;33680;-81
2023/05/29 03:15:06;;;;;;;;;;;;;;;17.42;49.87;99468.03;4400990;32;869506;-81
2023/05/29 03:17:36;;;;;;;;;;;;;;;17.52;49.45;99466.72;4428225;32;33498;-81
2023/05/29 03:20:07;;;;;;;;;;;;;;;17.54;49.46;99469.25;4427811;32;33689;-80
2023/05/29 03:22:36;;;;;;;;;;;;;;;17.30;50.17;99466.81;4427022;32;33999;-82
2023/05/29 03:25:06;;;;;;;;;;;;;;;17.51;49.95;99470.22;4433014;32;34284;-81
2023/05/29 03:27:35;;;;;;;;;;;;;;;17.52;49.95;99465.84;4427477;32;32894;-83
2023/05/29 03:30:07;;;;;;;;;;;;;;;17.51;50.20;99470.22;4426505;32;34026;-81
2023/05/29 03:32:36;;;;;;;;;;;;;;;17.57;50.42;99480.47;4426631;32;35059;-80
2023/05/29 03:35:05;;;;;;;;;;;;;;;17.65;50.48;99473.09;4432197;32;34512;-81
2023/05/29 03:37:34;;;;;;;;;;;;;;;17.64;50.72;99475.78;4426630;32;34205;-81
2023/05/29 03:40:04;;;;;;;;;;;;;;;17.68;50.78;99479.97;4427409;32;33841;-82
2023/05/29 03:42:32;;;;;;;;;;;;;;;17.71;50.83;99485.09;4429539;32;33667;-80
2023/05/29 03:45:01;;;;;;;;;;;;;;;17.84;50.93;99486.25;4434653;32;35115;-81
2023/05/29 03:47:34;;;;;;;;;;;;;;;17.73;51.24;99485.84;4433591;32;33783;-82
2023/05/29 03:50:03;;;;;;;;;;;;;;;17.98;51.17;99490.87;4429137;32;34191;-81
2023/05/29 03:52:33;;;;;;;;;;;;;;;17.96;51.47;99494.47;4428503;32;33977;-80
2023/05/29 03:55:02;;;;;;;;;;;;;;;18.13;51.05;99495.38;4428507;32;33174;-79
2023/05/29 03:57:31;;;;;;;;;;;;;;;18.07;51.51;99507.94;4434500;32;34133;-79
2023/05/29 04:00:00;;;;;;;;;;;;;;;18.41;50.79;99503.69;4430183;32;33604;-80
2023/05/29 04:02:29;;;;;;;;;;;;;;;18.36;51.12;99496.03;4429333;32;33638;-78
2023/05/29 04:04:59;;;;;;;;;;;;;;;18.44;50.78;99499.16;4428199;32;33723;-79
2023/05/29 04:07:28;;;;;;;;;;;;;;;18.72;50.46;99497.78;4433871;32;33167;-78
2023/05/29 04:09:56;;;;;;;;;;;;;;;18.69;50.39;99493.53;4429267;32;34384;-79
2023/05/29 04:12:25;;;;;;;;;;;;;;;18.83;49.80;99494.69;4428999;32;34967;-78
2023/05/29 04:14:53;;;;;;;;;;;;;;;19.00;49.09;99492.03;4429601;32;32804;-79
2023/05/29 04:17:21;;;;;;;;;;;;;;;19.11;49.61;99497.59;4428383;32;34254;-80
2023/05/29 04:19:50;;;;;;;;;;;;;;;19.67;48.43;99497.31;4433680;32;34295;-79
2023/05/29 04:22:20;;;;;;;;;;;;;;;19.97;47.75;99495.69;4430330;32;33874;-78
2023/05/29 04:24:49;;;;;;;;;;;;;;;20.53;46.66;99497.84;4429619;32;33735;-79
2023/05/29 04:27:17;;;;;;;;;;;;;;;21.06;45.62;99505.28;4428177;32;33602;-80
2023/05/29 04:29:46;;;;;;;;;;;;;;;21.80;43.20;99503.50;4434952;32;33254;-80
2023/05/29 04:32:14;;;;;;;;;;;;;;;22.22;42.53;99506.16;4429861;32;34684;-80
2023/05/29 04:34:44;;;;;;;;;;;;;;;22.54;42.09;99502.31;4429997;32;34176;-81
2023/05/29 04:37:14;;;;;;;;;;;;;;;23.19;40.39;99503.28;4428310;32;33933;-78
2023/05/29 04:39:43;;;;;;;;;;;;;;;23.56;39.04;99503.41;4430512;32;34629;-80
2023/05/29 04:42:14;;;;;;;;;;;;;;;23.83;38.76;99506.78;4434562;32;34151;-81
2023/05/29 04:44:44;;;;;;;;;;;;;;;24.04;38.18;99503.53;4429862;32;33036;-81
2023/05/29 04:47:15;;;;;;;;;;;;;;;24.10;38.38;99508.41;4428493;32;33998;-81
2023/05/29 04:49:48;;;;;;;;;;;;;;;24.59;37.48;99512.78;4429779;32;33585;-79
2023/05/29 04:52:17;;;;;;;;;;;;;;;25.02;35.87;99514.88;4434636;32;34931;-81
2023/05/29 04:54:47;;;;;;;;;;;;;;;24.89;36.34;99508.81;4429825;32;33910;-79
2023/05/29 04:57:16;;;;;;;;;;;;;;;25.06;36.08;99521.66;4429438;32;33876;-80
2023/05/29 04:59:45;;;;;;;;;;;;;;;25.00;36.48;99516.78;4429898;32;34074;-81
2023/05/29 05:02:14;;;;;;;;;;;;;;;25.23;35.85;99511.59;4431202;32;33991;-82
2023/05/29 05:04:43;;;;;;;;;;;;;;;25.61;35.55;99513.03;4434718;32;34500;-79
2023/05/29 05:07:12;;;;;;;;;;;;;;;25.71;35.13;99517.53;4429783;32;33157;-79
2023/05/29 05:09:41;;;;;;;;;;;;;;;26.02;34.46;99524.91;4429581;32;34136;-80
2023/05/29 05:12:12;;;;;;;;;;;;;;;25.37;37.95;99521.13;4430854;32;33560;-79
2023/05/29 05:14:41;;;;;;;;;;;;;;;25.31;38.75;99519.78;4432959;32;33447;-79
2023/05/29 05:17:11;;;;;;;;;;;;;;;25.33;38.32;99524.03;4429548;32;34138;-80
2023/05/29 05:19:41;;;;;;;;;;;;;;;25.05;38.06;99522.59;4429470;32;34737;-79
2023/05/29 05:22:11;;;;;;;;;;;;;;;24.82;38.48;99527.00;4428726;32;34268;-79
2023/05/29 05:24:40;;;;;;;;;;;;;;;24.63;39.36;99527.50;4432804;32;34425;-79
2023/05/29 05:27:09;;;;;;;;;;;;;;;24.34;40.06;99521.69;4433662;32;33319;-80
2023/05/29 05:29:40;;;;;;;;;;;;;;;24.61;39.83;99529.44;4426617;32;32749;-80
2023/05/29 05:32:10;;;;;;;;;;;;;;;23.32;40.63;99533.25;4429235;32;33954;-79
2023/05/29 05:34:38;;;;;;;;;;;;;;;23.76;39.39;99531.16;4427816;32;34636;-80
2023/05/29 05:37:07;;;;;;;;;;;;;;;23.87;38.88;99528.56;4434709;32;33095;-78
2023/05/29 05:39:36;;;;;;;;;;;;;;;23.62;38.99;99518.84;4429293;32;34315;-78
2023/05/29 05:42:05;;;;;;;;;;;;;;;23.76;38.96;99526.69;4429813;32;34358;-80
2023/05/29 05:44:35;;;;;;;;;;;;;;;24.42;37.71;99529.06;4428889;32;33404;-79
2023/05/29 05:47:06;;;;;;;;;;;;;;;24.40;38.12;99531.81;4434793;32;34307;-79
2023/05/29 05:49:35;;;;;;;;;;;;;;;24.46;38.10;99526.09;4430010;32;33899;-79
2023/05/29 05:52:04;;;;;;;;;;;;;;;24.27;38.37;99537.19;4429741;32;34468;-78
2023/05/29 05:54:33;;;;;;;;;;;;;;;23.90;38.82;99533.69;4429737;32;34910;-79
2023/05/29 05:57:02;;;;;;;;;;;;;;;24.42;38.17;99532.56;4429826;32;33097;-79
2023/05/29 05:59:31;;;;;;;;;;;;;;;24.09;39.50;99527.91;4434645;32;33125;-79
2023/05/29 06:02:04;;;;;;;;;;;;;;;24.23;38.78;99534.84;4429707;32;33372;-78
2023/05/29 06:04:38;;;;;;;;;;;;;;;24.02;40.16;99535.44;4428177;32;34849;-80
2023/05/29 06:07:06;;;;;;;;;;;;;;;24.12;39.82;99535.66;4429202;32;33425;-81
2023/05/29 06:09:35;;;;;;;;;;;;;;;23.82;40.94;99533.34;4434742;32;34571;-79
2023/05/29 06:12:05;;;;;;;;;;;;;;;23.72;40.84;99537.59;4429751;32;34650;-79
2023/05/29 06:14:34;;;;;;;;;;;;;;;24.10;40.02;99534.91;4428969;32;34390;-79
2023/05/29 06:17:03;;;;;;;;;;;;;;;24.27;39.73;99545.13;4429274;32;33262;-78
2023/05/29 06:19:31;;;;;;;;;;;;;;;23.94;40.47;99544.91;4428953;32;33497;-79
2023/05/29 06:22:02;;;;;;;;;;;;;;;24.15;39.41;99551.31;4434531;32;34064;-79
2023/05/29 06:24:31;;;;;;;;;;;;;;;23.59;41.17;99549.03;4429036;32;33859;-79
2023/05/29 06:27:01;;;;;;;;;;;;;;;22.99;42.54;99552.25;4429074;32;33442;-79
2023/05/29 06:29:30;;;;;;;;;;;;;;;23.73;41.10;99549.88;4429897;32;33952;-79
2023/05/29 06:31:59;;;;;;;;;;;;;;;23.20;42.94;99556.12;4434653;32;34033;-78
2023/05/29 06:34:28;;;;;;;;;;;;;;;23.70;40.55;99553.56;4428194;32;34458;-81
2023/05/29 06:36:56;;;;;;;;;;;;;;;23.70;39.77;99560.69;4428961;32;34180;-80
2023/05/29 06:39:26;;;;;;;;;;;;;;;23.31;40.66;99565.13;4427490;32;33957;-81
2023/05/29 06:41:55;;;;;;;;;;;;;;;23.65;40.16;99561.00;4427717;32;33927;-81
2023/05/29 06:44:24;;;;;;;;;;;;;;;23.54;40.68;99564.41;4433972;32;34390;-79
2023/05/29 06:46:54;;;;;;;;;;;;;;;23.55;40.43;99567.88;4429402;32;32314;-79
2023/05/29 06:49:26;;;;;;;;;;;;;;;23.99;39.29;99563.97;4428888;32;33533;-79
2023/05/29 06:51:55;;;;;;;;;;;;;;;23.88;39.48;99558.59;4427063;32;33818;-79
2023/05/29 06:54:24;;;;;;;;;;;;;;;22.84;40.70;99569.97;4434302;32;34970;-81
2023/05/29 06:56:55;;;;;;;;;;;;;;;23.19;40.37;99572.09;4429341;32;33099;-79
2023/05/29 06:59:39;;;;;;;;;;;;;;;23.64;39.80;99570.75;4425313;32;34207;-79
2023/05/29 07:02:08;;;;;;;;;;;;;;;23.79;39.65;99562.72;4427459;32;35219;-82
2023/05/29 07:04:37;;;;;;;;;;;;;;;23.18;40.22;99570.41;4428397;32;33792;-81
2023/05/29 07:07:06;;;;;;;;;;;;;;;23.90;39.26;99572.59;4433373;32;33795;-79
2023/05/29 07:09:36;;;;;;;;;;;;;;;23.90;38.65;99569.94;4428283;32;33958;-80
2023/05/29 07:12:07;;;;;;;;;;;;;;;24.48;38.70;99579.03;4428843;32;33837;-80
2023/05/29 07:14:35;;;;;;;;;;;;;;;24.14;39.28;99573.50;4426917;32;34419;-79
2023/05/29 07:17:04;;;;;;;;;;;;;;;24.20;39.11;99578.34;4433566;32;33626;-78
2023/05/29 07:19:33;;;;;;;;;;;;;;;24.55;39.72;99576.78;4429611;32;33961;-80
2023/05/29 07:22:02;;;;;;;;;;;;;;;24.98;38.56;99573.59;4430386;32;34301;-78
2023/05/29 07:24:32;;;;;;;;;;;;;;;24.32;39.67;99583.72;4427076;32;32923;-79
2023/05/29 07:27:02;;;;;;;;;;;;;;;24.40;39.79;99578.72;4428810;32;32563;-79
2023/05/29 07:29:32;;;;;;;;;;;;;;;24.80;40.17;99584.63;4438454;32;33636;-79
2023/05/29 07:32:01;;;;;;;;;;;;;;;24.59;39.69;99589.69;4427737;32;33240;-80
2023/05/29 07:34:31;;;;;;;;;;;;;;;24.41;39.25;99588.38;4430868;32;33984;-79
2023/05/29 07:37:01;;;;;;;;;;;;;;;24.59;38.34;99588.84;4427611;32;33299;-81
2023/05/29 07:39:30;;;;;;;;;;;;;;;24.39;40.21;99592.94;4434715;32;33492;-81
2023/05/29 07:42:06;;;;;;;;;;;;;;;24.87;39.27;99593.84;4431933;32;34730;-80
2023/05/29 07:44:37;;;;;;;;;;;;;;;24.75;40.02;99605.34;4431605;32;34107;-80
2023/05/29 07:47:05;;;;;;;;;;;;;;;24.80;39.36;99613.81;4429030;32;32466;-80
2023/05/29 07:49:35;;;;;;;;;;;;;;;24.99;40.16;99613.31;4431884;32;33689;-80
2023/05/29 07:52:04;;;;;;;;;;;;;;;25.32;39.73;99612.63;4433432;32;35038;-82
2023/05/29 07:54:33;;;;;;;;;;;;;;;25.73;40.33;99621.88;4431713;32;34470;-80
2023/05/29 07:57:03;;;;;;;;;;;;;;;25.93;40.13;99625.69;4431725;32;34283;-79
2023/05/29 07:59:33;;;;;;;;;;;;;;;25.68;39.61;99613.41;4433180;32;32225;-79
2023/05/29 08:02:03;;;;;;;;;;;;;;;25.81;40.03;99621.28;4434068;32;34864;-81
2023/05/29 08:04:34;;;;;;;;;;;;;;;25.85;40.07;99616.56;4428173;32;34856;-80
2023/05/29 08:07:03;;;;;;;;;;;;;;;25.95;40.65;99615.78;4427652;32;33399;-79
2023/05/29 08:09:32;;;;;;;;;;;;;;;26.19;40.04;99614.78;4427523;32;34577;-80
2023/05/29 08:12:01;;;;;;;;;;;;;;;26.45;39.70;99612.72;4427811;32;34719;-80
2023/05/29 08:14:30;;;;;;;;;;;;;;;26.27;39.35;99616.84;4433159;32;34386;-80
2023/05/29 08:16:59;;;;;;;;;;;;;;;26.24;38.46;99612.63;4427594;32;33369;-80
2023/05/29 08:19:30;;;;;;;;;;;;;;;26.36;39.07;99616.09;4427736;32;34708;-78
2023/05/29 08:21:58;;;;;;;;;;;;;;;25.19;40.29;99611.84;4428488;32;34057;-79
2023/05/29 08:24:27;;;;;;;;;;;;;;;25.22;40.57;99613.41;4435102;32;34319;-80
2023/05/29 08:26:56;;;;;;;;;;;;;;;25.44;39.73;99609.97;4427654;32;33302;-79
2023/05/29 08:29:25;;;;;;;;;;;;;;;26.09;38.42;99619.16;4435424;32;33925;-79
2023/05/29 08:31:53;;;;;;;;;;;;;;;26.03;39.53;99619.66;4430641;32;33798;-81
2023/05/29 08:34:22;;;;;;;;;;;;;;;26.07;39.84;99615.75;4436265;32;33846;-81
2023/05/29 08:36:54;;;;;;;;;;;;;;;26.30;38.25;99606.81;4435119;32;33572;-79
2023/05/29 08:39:24;;;;;;;;;;;;;;;26.04;40.03;99613.34;4431548;32;34069;-79
2023/05/29 08:41:56;;;;;;;;;;;;;;;26.13;38.17;99609.97;4429542;32;34027;-81
2023/05/29 08:44:29;;;;;;;;;;;;;;;25.85;39.80;99611.25;4429667;32;34411;-79
2023/05/29 08:46:57;;;;;;;;;;;;;;;25.36;39.31;99607.91;4435702;32;34081;-80
2023/05/29 08:49:27;;;;;;;;;;;;;;;25.51;39.04;99605.88;4429759;32;33486;-80
2023/05/29 08:51:58;;;;;;;;;;;;;;;25.73;39.82;99608.59;4429701;32;33273;-79
2023/05/29 08:54:27;;;;;;;;;;;;;;;25.96;40.27;99604.16;4429677;32;34433;-81
2023/05/29 08:56:57;;;;;;;;;;;;;;;26.26;38.66;99604.50;4432332;32;33041;-80
2023/05/29 08:59:26;;;;;;;;;;;;;;;26.41;39.17;99605.97;4434944;32;34748;-81
2023/05/29 09:01:55;;;;;;;;;;;;;;;26.41;37.62;99603.31;4429565;32;33854;-80
2023/05/29 09:04:24;;;;;;;;;;;;;;;26.09;38.39;99603.19;4429628;32;33886;-79
2023/05/29 09:06:55;;;;;;;;;;;;;;;26.38;37.46;99600.88;4429468;32;34248;-81
2023/05/29 09:09:26;;;;;;;;;;;;;;;26.29;37.34;99598.94;4434955;32;34107;-81
2023/05/29 09:11:54;;;;;;;;;;;;;;;26.46;36.81;99600.25;4429506;32;33995;-79
2023/05/29 09:14:33;;;;;;;;;;;;;;;27.03;37.34;99604.47;4429281;32;34265;-80
2023/05/29 09:17:03;;;;;;;;;;;;;;;26.63;37.33;99606.88;4428761;32;33355;-80
2023/05/29 09:19:35;;;;;;;;;;;;;;;27.07;36.24;99600.59;4431593;32;34846;-81
2023/05/29 09:22:05;;;;;;;;;;;;;;;26.95;36.69;99610.44;4437682;32;34110;-81
2023/05/29 09:24:36;;;;;;;;;;;;;;;27.40;37.40;99606.72;4431457;32;33864;-80
2023/05/29 09:27:05;;;;;;;;;;;;;;;27.52;37.03;99605.72;4430877;32;33593;-80
2023/05/29 09:29:34;;;;;;;;;;;;;;;27.77;36.62;99609.78;4430985;32;33662;-81
2023/05/29 09:32:03;;;;;;;;;;;;;;;27.86;37.28;99605.50;4436450;32;34720;-82
2023/05/29 09:34:33;;;;;;;;;;;;;;;28.04;35.36;99601.22;4431225;32;33396;-80
2023/05/29 09:37:08;;;;;;;;;;;;;;;28.11;34.86;99600.69;4433585;32;33589;-80
2023/05/29 09:39:48;;;;;;;;;;;;;;;28.22;35.96;99603.25;4434814;32;34852;-81
2023/05/29 09:42:17;;;;;;;;;;;;;;;28.29;36.33;99610.59;4420802;32;33593;-79
2023/05/29 09:44:46;;;;;;;;;;;;;;;28.39;36.14;99610.63;4440064;32;34435;-79
2023/05/29 09:47:15;;;;;;;;;;;;;;;28.41;35.58;99602.47;4433512;32;33604;-79
2023/05/29 09:49:44;;;;;;;;;;;;;;;28.47;36.54;99613.47;4434554;32;33711;-78
2023/05/29 09:52:15;;;;;;;;;;;;;;;28.46;35.76;99613.59;4435970;32;33880;-81
2023/05/29 09:54:46;;;;;;;;;;;;;;;28.04;36.02;99617.22;4442544;32;35225;-79
2023/05/29 09:57:18;;;;;;;;;;;;;;;28.37;36.57;99617.91;4442140;32;32412;-79
2023/05/29 09:59:51;;;;;;;;;;;;;;;28.61;34.99;99614.91;4435631;32;33648;-81
2023/05/29 10:02:20;;;;;;;;;;;;;;;28.23;35.63;99613.78;4437772;32;33623;-79
2023/05/29 10:04:50;;;;;;;;;;;;;;;28.63;35.12;99618.28;4431043;32;33986;-79
2023/05/29 10:07:22;;;;;;;;;;;;;;;28.82;34.82;99622.78;4432179;32;34254;-80
2023/05/29 10:09:51;;;;;;;;;;;;;;;28.79;35.20;99622.25;4431594;32;34070;-79
2023/05/29 10:12:21;;;;;;;;;;;;;;;28.85;35.16;99622.53;4424088;32;33729;-80
2023/05/29 10:14:51;;;;;;;;;;;;;;;28.84;35.38;99628.00;4436443;32;33364;-80
2023/05/29 10:17:19;;;;;;;;;;;;;;;28.86;34.26;99623.38;4437646;32;33555;-81
2023/05/29 10:19:48;;;;;;;;;;;;;;;28.34;34.66;99628.84;4450829;32;33843;-79
2023/05/29 10:22:17;;;;;;;;;;;;;;;28.30;35.25;99628.28;4444014;32;34058;-79
2023/05/29 10:24:45;;;;;;;;;;;;;;;28.16;35.48;99619.81;4429717;32;34947;-80
2023/05/29 10:27:14;;;;;;;;;;;;;;;28.38;35.05;99630.25;4430328;32;33886;-80
2023/05/29 10:29:48;;;;;;;;;;;;;;;28.45;35.05;99627.91;4434699;32;33669;-81
2023/05/29 10:32:20;;;;;;;;;;;;;;;28.53;36.49;99629.91;4430715;32;34600;-79
2023/05/29 10:34:54;;;;;;;;;;;;;;;28.76;35.74;99628.69;4432926;32;34388;-81
2023/05/29 10:37:26;;;;;;;;;;;;;;;28.71;35.66;99625.59;4430940;32;32916;-78
2023/05/29 10:39:54;;;;;;;;;;;;;;;28.77;35.81;99621.53;4430835;32;33955;-79
2023/05/29 10:42:38;;;;;;;;;;;;;;;28.99;34.70;99623.09;4429944;32;33667;-79
2023/05/29 10:45:09;;;;;;;;;;;;;;;28.79;35.38;99616.91;4429613;32;34843;-81
2023/05/29 10:47:38;;;;;;;;;;;;;;;29.04;34.96;99615.50;4430687;32;32614;-80
2023/05/29 10:50:06;;;;;;;;;;;;;;;28.68;34.73;99602.69;4429669;32;35398;-79
2023/05/29 10:52:36;;;;;;;;;;;;;;;28.55;34.55;99614.59;4435860;32;35187;-80
2023/05/29 10:55:05;;;;;;;;;;;;;;;28.53;34.48;99611.22;4430593;32;33998;-79
2023/05/29 10:57:35;;;;;;;;;;;;;;;28.55;34.93;99611.94;4430423;32;33936;-80
2023/05/29 11:00:12;;;;;;;;;;;;;;;28.66;35.72;99606.50;4428739;32;33342;-81
2023/05/29 11:02:43;;;;;;;;;;;;;;;28.32;37.16;99614.81;4427802;32;33857;-80
2023/05/29 11:05:24;;;;;;;;;;;;;;;28.35;35.71;99609.19;4436080;32;34014;-80
2023/05/29 11:07:54;;;;;;;;;;;;;;;28.31;35.25;99610.44;4428827;32;32964;-79
2023/05/29 11:10:41;;;;;;;;;;;;;;;28.32;34.80;99604.13;4430322;32;34492;-81
2023/05/29 11:13:11;;;;;;;;;;;;;;;28.25;35.81;99598.50;4430265;32;34163;-80
2023/05/29 11:15:39;;;;;;;;;;;;;;;28.32;35.97;99597.94;4429700;32;34676;-80
2023/05/29 11:18:11;;;;;;;;;;;;;;;28.21;35.68;99598.91;4435701;32;33035;-80
2023/05/29 11:20:43;;;;;;;;;;;;;;;28.17;35.63;99608.97;4429820;32;34920;-79
2023/05/29 11:23:17;;;;;;;;;;;;;;;28.13;35.82;99606.75;4429895;32;33904;-80
2023/05/29 11:25:47;;;;;;;;;;;;;;;28.07;36.06;99600.09;4430159;32;34412;-81
2023/05/29 11:28:16;;;;;;;;;;;;;;;28.13;36.88;99593.41;4430505;32;33169;-81
2023/05/29 11:30:45;;;;;;;;;;;;;;;27.96;37.28;99602.88;4435348;32;34510;-81
2023/05/29 11:33:19;;;;;;;;;;;;;;;28.12;37.61;99594.38;4430729;32;33831;-80
2023/05/29 11:35:48;;;;;;;;;;;;;;;27.91;37.91;99603.28;4430261;32;34802;-81
2023/05/29 11:38:17;;;;;;;;;;;;;;;27.93;38.38;99608.47;4429931;32;33117;-80
2023/05/29 11:40:46;;;;;;;;;;;;;;;27.77;38.14;99599.09;4435467;32;33676;-80
2023/05/29 11:43:15;;;;;;;;;;;;;;;27.70;37.71;99597.09;4430038;32;34706;-81
2023/05/29 11:45:46;;;;;;;;;;;;;;;27.65;38.73;99589.50;4429540;32;33838;-80
2023/05/29 11:48:15;;;;;;;;;;;;;;;27.78;38.24;99583.94;4429789;32;33600;-82
2023/05/29 11:50:45;;;;;;;;;;;;;;;27.91;38.31;99586.41;4430034;32;33688;-80
2023/05/29 11:53:14;;;;;;;;;;;;;;;27.54;38.11;99582.41;4435037;32;33340;-82
2023/05/29 11:55:43;;;;;;;;;;;;;;;27.38;39.20;99574.06;4429919;32;33805;-79
2023/05/29 11:58:11;;;;;;;;;;;;;;;27.20;38.86;99563.12;4429827;32;33636;-79
2023/05/29 12:00:42;;;;;;;;;;;;;;;27.63;38.37;99562.97;4430779;32;34242;-79
2023/05/29 12:03:11;;;;;;;;;;;;;;;27.72;39.20;99557.84;4437411;32;35054;-80
2023/05/29 12:05:48;;;;;;;;;;;;;;;28.07;39.06;99544.09;4431800;32;34341;-81
2023/05/29 12:08:18;;;;;;;;;;;;;;;28.26;38.32;99551.31;4431736;32;33740;-80
2023/05/29 12:10:47;;;;;;;;;;;;;;;28.61;36.27;99544.66;4431582;32;34789;-80
2023/05/29 12:13:16;;;;;;;;;;;;;;;29.12;36.57;99541.72;4431785;32;33779;-81
2023/05/29 12:15:46;;;;;;;;;;;;;;;29.29;34.62;99545.50;4436731;32;34079;-78
2023/05/29 12:18:14;;;;;;;;;;;;;;;29.27;33.66;99541.28;4431571;32;33655;-79
2023/05/29 12:20:43;;;;;;;;;;;;;;;28.93;34.28;99533.72;4431911;32;34522;-81
2023/05/29 12:23:13;;;;;;;;;;;;;;;29.34;35.41;99537.88;4431528;32;33621;-81
2023/05/29 12:25:43;;;;;;;;;;;;;;;29.54;35.23;99535.16;4436944;32;33406;-81
2023/05/29 12:28:12;;;;;;;;;;;;;;;29.25;33.95;99527.22;4431978;32;32926;-80
2023/05/29 12:30:43;;;;;;;;;;;;;;;28.89;33.87;99525.12;4431535;32;34058;-80
2023/05/29 12:33:17;;;;;;;;;;;;;;;29.09;32.18;99523.31;4432025;32;34165;-79
2023/05/29 12:35:46;;;;;;;;;;;;;;;29.28;31.68;99526.94;4431478;32;33834;-80
2023/05/29 12:38:20;;;;;;;;;;;;;;;29.37;32.14;99527.91;4436950;32;34162;-81
2023/05/29 12:40:49;;;;;;;;;;;;;;;29.62;31.74;99524.56;4431572;32;33574;-81
2023/05/29 12:43:18;;;;;;;;;;;;;;;29.07;32.89;99525.28;4431477;32;33488;-80
2023/05/29 12:45:46;;;;;;;;;;;;;;;29.32;32.91;99521.16;4431416;32;34291;-80
2023/05/29 12:48:15;;;;;;;;;;;;;;;29.62;32.67;99521.87;4436868;32;33471;-80
2023/05/29 12:50:44;;;;;;;;;;;;;;;30.04;32.90;99521.47;4430434;32;34942;-80
2023/05/29 12:53:13;;;;;;;;;;;;;;;30.44;31.40;99512.19;4431389;32;35206;-81
2023/05/29 12:55:45;;;;;;;;;;;;;;;30.62;31.61;99521.09;4430612;32;34098;-80
2023/05/29 12:58:15;;;;;;;;;;;;;;;30.62;31.13;99520.25;4431568;32;32114;-81
2023/05/29 13:00:46;;;;;;;;;;;;;;;30.31;32.51;99509.06;4440006;32;34725;-80